Time;durP1;ratioP1;P1;durP2;ratioP2;P2;SDS_P1;SDS_P2;PMS_P1;PMS_P2;Temp;Humidity;BMP_temperature;BMP_pressure;BME280_temperature;BME280_humidity;BME280_pressure;Samples;Min_cycle;Max_cycle;Signal;HPM_P1;HPM_P2
2022/05/31 00:00:19;;;;;;;2.72;2.35;;;9.30;99.90;;;;;;5002205;28;20056;-77
2022/05/31 00:02:45;;;;;;;3.30;2.05;;;9.30;99.90;;;;;;5000190;28;20619;-77
2022/05/31 00:05:12;;;;;;;2.05;1.80;;;9.30;99.90;;;;;;5001753;28;20065;-77
2022/05/31 00:07:39;;;;;;;2.40;2.20;;;9.30;99.90;;;;;;5001425;28;20096;-77
2022/05/31 00:10:06;;;;;;;4.85;2.55;;;9.30;99.90;;;;;;5002596;28;20049;-77
2022/05/31 00:12:32;;;;;;;2.65;2.17;;;9.30;99.90;;;;;;5001114;28;20133;-77
2022/05/31 00:14:59;;;;;;;2.17;2.00;;;9.20;99.90;;;;;;5000431;28;20120;-77
2022/05/31 00:17:25;;;;;;;1.90;1.80;;;9.20;99.90;;;;;;5000808;28;20116;-77
2022/05/31 00:19:51;;;;;;;2.90;2.63;;;9.20;99.90;;;;;;5002266;28;20129;-77
2022/05/31 00:22:19;;;;;;;2.05;1.90;;;9.20;99.90;;;;;;5000069;28;20066;-77
2022/05/31 00:24:45;;;;;;;2.95;2.65;;;9.20;99.90;;;;;;5001733;28;20069;-77
2022/05/31 00:27:12;;;;;;;2.20;2.00;;;9.20;99.90;;;;;;5001659;28;20042;-77
2022/05/31 00:29:38;;;;;;;2.45;2.17;;;9.20;99.90;;;;;;5001978;28;20389;-77
2022/05/31 00:32:07;;;;;;;7.22;2.47;;;9.20;99.90;;;;;;5000289;28;20100;-77
2022/05/31 00:34:35;;;;;;;2.05;1.75;;;9.20;99.90;;;;;;5001346;28;20053;-77
2022/05/31 00:37:01;;;;;;;2.50;2.40;;;9.20;99.90;;;;;;5001113;28;20034;-77
2022/05/31 00:39:27;;;;;;;2.65;2.45;;;9.20;99.90;;;;;;5002344;28;20378;-77
2022/05/31 00:41:57;;;;;;;2.65;2.05;;;9.10;99.90;;;;;;5001872;28;20041;-77
2022/05/31 00:44:27;;;;;;;4.85;3.15;;;9.10;99.90;;;;;;5000432;28;20523;-77
2022/05/31 00:47:00;;;;;;;2.30;2.13;;;9.10;99.90;;;;;;4999733;28;20436;-77
2022/05/31 00:49:31;;;;;;;2.40;2.17;;;9.10;99.90;;;;;;5001841;28;20041;-77
2022/05/31 00:52:01;;;;;;;2.47;2.07;;;9.10;99.90;;;;;;5001713;28;20046;-76
2022/05/31 00:54:32;;;;;;;3.85;2.85;;;9.10;99.90;;;;;;4981126;28;20324;-77
2022/05/31 00:56:59;;;;;;;3.05;2.53;;;9.10;99.90;;;;;;4981892;28;20046;-77
2022/05/31 00:59:32;;;;;;;2.42;2.22;;;9.10;99.90;;;;;;5000757;28;20551;-77
2022/05/31 01:01:58;;;;;;;3.38;3.08;;;9.10;99.90;;;;;;5000949;28;20030;-77
2022/05/31 01:04:46;;;;;;;3.40;2.63;;;9.10;99.90;;;;;;5001016;28;20313;-77
2022/05/31 01:07:12;;;;;;;4.53;2.38;;;9.00;99.90;;;;;;5001004;28;20045;-77
2022/05/31 01:09:38;;;;;;;3.75;2.10;;;9.00;99.90;;;;;;4999888;28;20054;-77
2022/05/31 01:12:04;;;;;;;2.92;2.50;;;9.00;99.90;;;;;;5001358;28;20049;-77
2022/05/31 01:14:31;;;;;;;2.42;2.22;;;9.00;99.90;;;;;;5002220;28;20046;-77
2022/05/31 01:17:00;;;;;;;2.17;2.03;;;9.00;99.90;;;;;;4999667;28;20053;-77
2022/05/31 01:22:10;;;;;;;2.92;1.88;;;9.00;99.90;;;;;;5000990;28;20045;-77
2022/05/31 01:24:49;;;;;;;2.47;2.28;;;9.00;99.90;;;;;;5001482;28;20562;-77
2022/05/31 01:28:03;;;;;;;2.53;2.30;;;9.00;99.90;;;;;;5000762;28;20056;-77
2022/05/31 01:30:31;;;;;;;2.78;2.58;;;9.00;99.90;;;;;;4977389;28;20182;-77
2022/05/31 01:33:23;;;;;;;3.58;2.22;;;9.00;99.90;;;;;;4999593;28;20493;-77
2022/05/31 01:35:48;;;;;;;2.42;2.22;;;9.00;99.90;;;;;;4998789;28;20042;-77
2022/05/31 01:38:37;;;;;;;2.33;2.13;;;9.00;99.90;;;;;;5001107;28;20032;-77
2022/05/31 01:41:20;;;;;;;14.50;2.67;;;9.00;99.90;;;;;;5002964;28;20053;-77
2022/05/31 01:43:49;;;;;;;3.00;2.38;;;9.00;99.90;;;;;;5004952;28;20041;-77
2022/05/31 01:46:22;;;;;;;4.28;2.75;;;9.10;99.90;;;;;;5003719;28;20334;-77
2022/05/31 01:48:49;;;;;;;2.22;2.03;;;9.10;99.90;;;;;;5004532;28;20044;-77
2022/05/31 01:51:15;;;;;;;4.32;2.55;;;9.10;99.90;;;;;;5004402;28;20041;-77
2022/05/31 01:53:41;;;;;;;2.00;1.90;;;9.20;99.90;;;;;;5002742;28;20049;-77
2022/05/31 01:56:09;;;;;;;1.92;1.83;;;9.10;99.90;;;;;;5004224;28;20033;-77
2022/05/31 01:58:38;;;;;;;5.30;2.45;;;9.10;99.90;;;;;;5004123;28;20431;-77
2022/05/31 02:01:04;;;;;;;2.50;2.30;;;9.20;99.90;;;;;;5003916;28;20109;-77
2022/05/31 02:03:31;;;;;;;2.30;2.13;;;9.20;99.90;;;;;;5005060;28;20479;-77
2022/05/31 02:05:56;;;;;;;1.67;1.58;;;9.10;99.90;;;;;;5004346;28;20065;-77
2022/05/31 02:08:25;;;;;;;3.40;2.80;;;9.10;99.90;;;;;;5003947;28;20168;-77
2022/05/31 02:10:51;;;;;;;2.28;2.17;;;9.10;99.90;;;;;;5002914;28;20057;-77
2022/05/31 02:13:18;;;;;;;2.70;2.50;;;9.10;99.90;;;;;;5003901;28;20038;-77
2022/05/31 02:15:44;;;;;;;4.07;2.78;;;9.10;99.90;;;;;;5002178;28;20132;-77
2022/05/31 02:18:12;;;;;;;2.03;1.85;;;9.10;99.90;;;;;;4988023;28;20121;-77
2022/05/31 02:20:38;;;;;;;2.28;2.15;;;9.10;99.90;;;;;;5004411;28;20041;-77
2022/05/31 02:23:05;;;;;;;2.78;2.58;;;9.10;99.90;;;;;;5004358;28;20524;-77
2022/05/31 02:25:30;;;;;;;2.00;1.83;;;9.10;99.90;;;;;;5003790;28;20042;-77
2022/05/31 02:27:56;;;;;;;3.72;2.10;;;9.10;99.90;;;;;;5001939;28;20334;-77
2022/05/31 02:30:22;;;;;;;3.75;2.85;;;9.10;99.90;;;;;;5003758;28;20112;-77
2022/05/31 02:32:47;;;;;;;2.45;2.25;;;9.10;99.90;;;;;;5002926;28;20053;-77
2022/05/31 02:35:13;;;;;;;2.38;1.63;;;9.10;99.90;;;;;;5004464;28;20046;-77
2022/05/31 02:37:39;;;;;;;2.90;2.63;;;9.10;99.90;;;;;;5001885;28;20100;-77
2022/05/31 02:40:06;;;;;;;8.18;2.38;;;9.10;99.90;;;;;;5002189;28;20085;-77
2022/05/31 02:42:36;;;;;;;2.22;2.13;;;9.10;99.90;;;;;;5002768;28;20038;-77
2022/05/31 02:45:06;;;;;;;2.20;2.00;;;9.10;99.90;;;;;;5004385;28;20049;-77
2022/05/31 02:47:32;;;;;;;1.92;1.80;;;9.20;99.90;;;;;;5002819;28;20046;-77
2022/05/31 02:49:57;;;;;;;2.83;2.63;;;9.20;99.90;;;;;;5002807;28;20449;-77
2022/05/31 02:52:23;;;;;;;1.77;1.67;;;9.20;99.90;;;;;;5000832;28;20038;-77
2022/05/31 02:54:48;;;;;;;2.33;2.10;;;9.20;99.90;;;;;;5002276;28;20120;-77
2022/05/31 02:57:14;;;;;;;2.92;2.63;;;9.20;99.90;;;;;;5004139;28;20044;-77
2022/05/31 02:59:40;;;;;;;2.42;2.28;;;9.30;99.90;;;;;;5002465;28;20049;-76
2022/05/31 03:02:06;;;;;;;5.95;2.08;;;9.30;99.90;;;;;;4999643;28;20038;-77
2022/05/31 03:04:32;;;;;;;2.80;2.17;;;9.30;99.90;;;;;;5003455;28;20099;-77
2022/05/31 03:07:01;;;;;;;2.33;2.13;;;9.30;99.90;;;;;;5003728;28;20034;-77
2022/05/31 03:09:29;;;;;;;2.13;1.88;;;9.30;99.90;;;;;;5002504;28;20049;-77
2022/05/31 03:12:17;;;;;;;3.95;2.47;;;9.30;99.90;;;;;;5003021;28;20053;-77
2022/05/31 03:14:45;;;;;;;1.60;1.50;;;9.30;99.90;;;;;;5001478;28;20077;-77
2022/05/31 03:17:20;;;;;;;2.28;2.15;;;9.30;99.90;;;;;;5002380;28;20042;-77
2022/05/31 03:20:01;;;;;;;3.05;2.28;;;9.40;99.90;;;;;;5003573;28;20050;-76
2022/05/31 03:22:30;;;;;;;2.63;2.42;;;9.40;99.90;;;;;;5002874;28;20054;-77
2022/05/31 03:25:09;;;;;;;1.88;1.60;;;9.30;99.90;;;;;;5001257;28;20038;-77
2022/05/31 03:27:35;;;;;;;1.95;1.52;;;9.40;99.90;;;;;;5002386;28;20096;-77
2022/05/31 03:30:03;;;;;;;1.73;1.58;;;9.40;99.90;;;;;;5002031;28;20126;-77
2022/05/31 03:32:31;;;;;;;2.60;1.67;;;9.40;99.90;;;;;;4985804;28;20042;-77
2022/05/31 03:34:57;;;;;;;2.38;2.28;;;9.50;99.90;;;;;;5003140;28;20088;-77
2022/05/31 03:37:22;;;;;;;4.10;2.17;;;9.50;99.90;;;;;;5001755;28;20290;-77
2022/05/31 03:39:48;;;;;;;1.45;1.38;;;9.50;99.90;;;;;;4985153;28;20508;-77
2022/05/31 03:42:13;;;;;;;2.13;1.77;;;9.50;99.90;;;;;;5001478;28;20404;-77
2022/05/31 03:44:39;;;;;;;3.00;1.63;;;9.50;99.90;;;;;;5001950;28;20073;-77
2022/05/31 03:47:05;;;;;;;1.95;1.70;;;9.50;99.90;;;;;;5001847;28;20076;-77
2022/05/31 03:49:32;;;;;;;2.28;1.85;;;9.50;99.90;;;;;;5001483;28;20447;-77
2022/05/31 03:51:58;;;;;;;2.30;2.10;;;9.50;99.90;;;;;;5001276;28;20068;-77
2022/05/31 03:54:24;;;;;;;1.90;1.80;;;9.50;99.90;;;;;;5000696;28;20054;-77
2022/05/31 03:56:49;;;;;;;1.45;1.33;;;9.50;99.90;;;;;;5002571;28;20042;-77
2022/05/31 03:59:15;;;;;;;2.05;1.80;;;9.50;99.90;;;;;;5000865;28;20488;-77
2022/05/31 04:01:40;;;;;;;1.92;1.83;;;9.50;99.90;;;;;;5000706;28;20045;-77
2022/05/31 04:04:06;;;;;;;2.58;1.70;;;9.50;99.90;;;;;;5001314;28;20077;-77
2022/05/31 04:06:32;;;;;;;2.22;2.03;;;9.50;99.90;;;;;;5001104;28;20042;-77
2022/05/31 04:08:58;;;;;;;2.60;2.40;;;9.50;99.90;;;;;;5001677;28;20067;-77
2022/05/31 04:11:24;;;;;;;3.05;2.72;;;9.50;99.90;;;;;;4981786;28;20051;-77
2022/05/31 04:13:50;;;;;;;2.50;2.30;;;9.50;99.90;;;;;;5002430;28;20084;-77
2022/05/31 04:16:17;;;;;;;1.98;1.83;;;9.50;99.90;;;;;;5001515;28;20042;-77
2022/05/31 04:18:43;;;;;;;2.65;2.17;;;9.50;99.90;;;;;;4984909;28;20053;-77
2022/05/31 04:21:16;;;;;;;2.47;1.77;;;9.50;99.90;;;;;;5002360;28;20510;-77
2022/05/31 04:23:58;;;;;;;2.22;1.88;;;9.60;99.90;;;;;;5001397;28;20037;-77
2022/05/31 04:26:30;;;;;;;1.20;1.17;;;9.60;99.90;;;;;;5001163;28;20084;-77
2022/05/31 04:28:56;;;;;;;1.67;1.52;;;9.60;99.90;;;;;;5002386;28;20289;-77
2022/05/31 04:31:22;;;;;;;1.63;1.40;;;9.60;99.90;;;;;;5000752;28;20726;-77
2022/05/31 04:33:48;;;;;;;2.55;2.35;;;9.60;99.90;;;;;;5001329;28;20610;-77
2022/05/31 04:36:19;;;;;;;2.83;2.15;;;9.70;99.90;;;;;;5000146;28;20058;-77
2022/05/31 04:38:45;;;;;;;2.13;2.03;;;9.70;99.90;;;;;;5001437;28;20038;-77
2022/05/31 04:41:26;;;;;;;2.63;2.42;;;9.70;99.90;;;;;;5001263;28;20646;-77
2022/05/31 04:43:57;;;;;;;1.92;1.80;;;9.70;99.90;;;;;;5000703;28;20107;-77
2022/05/31 04:46:25;;;;;;;2.75;2.55;;;9.70;99.90;;;;;;4999610;28;20033;-77
2022/05/31 04:48:53;;;;;;;2.75;1.70;;;9.70;99.90;;;;;;5001248;28;20137;-77
2022/05/31 04:51:18;;;;;;;3.90;2.42;;;9.70;99.90;;;;;;4999713;28;20052;-77
2022/05/31 04:53:44;;;;;;;2.15;2.05;;;9.70;99.90;;;;;;5000513;28;20140;-78
2022/05/31 04:56:13;;;;;;;2.05;1.92;;;9.80;99.90;;;;;;4999528;28;20314;-78
2022/05/31 04:58:39;;;;;;;2.92;2.63;;;9.80;99.90;;;;;;4982151;28;20512;-77
2022/05/31 05:01:07;;;;;;;1.85;1.75;;;9.80;99.90;;;;;;4998894;28;20046;-78
2022/05/31 05:03:37;;;;;;;2.67;2.25;;;9.90;99.90;;;;;;5000955;28;20077;-77
2022/05/31 05:06:07;;;;;;;2.15;2.00;;;9.90;99.90;;;;;;5000100;28;20571;-77
2022/05/31 05:08:34;;;;;;;2.65;2.03;;;10.00;99.90;;;;;;5000217;28;20054;-77
2022/05/31 05:11:01;;;;;;;2.72;2.35;;;10.00;99.90;;;;;;4996760;28;20035;-78
2022/05/31 05:13:27;;;;;;;3.83;2.92;;;10.10;99.90;;;;;;5001873;28;20730;-78
2022/05/31 05:15:55;;;;;;;6.32;2.67;;;10.10;99.90;;;;;;5002229;28;20515;-78
2022/05/31 05:18:21;;;;;;;1.52;1.42;;;10.10;99.90;;;;;;5004804;28;20954;-79
2022/05/31 05:20:47;;;;;;;2.03;1.92;;;10.10;99.90;;;;;;5004712;28;20136;-79
2022/05/31 05:23:12;;;;;;;3.30;2.42;;;10.20;99.90;;;;;;5005132;28;20153;-78
2022/05/31 05:25:38;;;;;;;1.65;1.55;;;10.20;99.90;;;;;;5005960;28;20038;-79
2022/05/31 05:30:38;;;;;;;6.47;2.45;;;10.20;99.90;;;;;;5004661;28;20065;-79
2022/05/31 05:30:51;;;;;;;1.83;1.73;;;10.20;99.90;;;;;;4985544;28;20077;-78
2022/05/31 05:33:17;;;;;;;3.00;2.50;;;10.20;99.90;;;;;;4994585;28;20045;-78
2022/05/31 05:35:43;;;;;;;2.47;2.25;;;10.20;99.90;;;;;;5005517;28;20046;-78
2022/05/31 05:38:08;;;;;;;2.63;2.42;;;10.20;99.90;;;;;;5005189;28;20041;-78
2022/05/31 05:40:37;;;;;;;3.53;2.70;;;10.20;99.90;;;;;;5001238;28;20042;-79
2022/05/31 05:43:06;;;;;;;8.55;2.65;;;10.20;99.90;;;;;;5003296;28;20042;-77
2022/05/31 05:45:32;;;;;;;2.13;1.95;;;10.20;99.90;;;;;;5007184;28;20050;-76
2022/05/31 05:47:57;;;;;;;4.90;2.28;;;10.20;99.90;;;;;;4987728;28;20044;-76
2022/05/31 05:50:23;;;;;;;3.72;1.42;;;10.30;99.90;;;;;;5004094;28;20073;-77
2022/05/31 05:52:54;;;;;;;2.88;1.88;;;10.30;99.90;;;;;;5005201;28;20037;-76
2022/05/31 05:55:19;;;;;;;2.92;1.45;;;10.40;99.90;;;;;;5000608;28;20050;-76
2022/05/31 05:57:45;;;;;;;1.67;1.58;;;10.40;99.90;;;;;;5000556;28;20038;-77
2022/05/31 06:00:11;;;;;;;1.25;1.15;;;10.40;99.90;;;;;;5002122;28;20135;-76
2022/05/31 06:02:41;;;;;;;1.92;1.83;;;10.40;99.90;;;;;;5005067;28;20037;-77
2022/05/31 06:05:12;;;;;;;2.35;1.63;;;10.40;99.90;;;;;;5007211;28;20147;-77
2022/05/31 06:07:48;;;;;;;2.20;1.98;;;10.40;99.90;;;;;;5007572;28;20707;-79
2022/05/31 06:10:20;;;;;;;2.28;1.65;;;10.40;99.90;;;;;;5001794;28;20053;-80
2022/05/31 06:13:03;;;;;;;4.45;1.73;;;10.40;99.90;;;;;;4998294;28;20050;-82
2022/05/31 06:15:32;;;;;;;2.50;2.20;;;10.40;99.90;;;;;;5001818;28;20479;-83
2022/05/31 06:18:01;;;;;;;2.97;2.28;;;10.40;99.90;;;;;;5005701;28;20054;-81
2022/05/31 06:20:29;;;;;;;2.13;1.85;;;10.50;99.90;;;;;;5004662;28;20112;-81
2022/05/31 06:22:56;;;;;;;3.25;1.88;;;10.50;99.90;;;;;;5004026;28;20405;-81
2022/05/31 06:25:22;;;;;;;2.42;2.22;;;10.50;99.90;;;;;;5003384;28;20077;-81
2022/05/31 06:27:48;;;;;;;4.07;2.55;;;10.60;99.90;;;;;;5003297;28;20135;-81
2022/05/31 06:30:14;;;;;;;3.70;2.38;;;10.60;99.90;;;;;;5002622;28;20515;-80
2022/05/31 06:32:40;;;;;;;3.25;2.83;;;10.70;99.90;;;;;;5002210;28;20033;-81
2022/05/31 06:35:06;;;;;;;2.78;2.28;;;10.70;99.90;;;;;;5003474;28;20045;-81
2022/05/31 06:37:32;;;;;;;3.35;3.05;;;10.70;99.90;;;;;;5002433;28;20045;-81
2022/05/31 06:39:58;;;;;;;3.28;2.80;;;10.80;99.90;;;;;;5002436;28;20054;-81
2022/05/31 06:42:24;;;;;;;2.65;2.45;;;10.80;99.90;;;;;;5003086;28;20088;-81
2022/05/31 06:44:49;;;;;;;3.40;2.22;;;10.90;99.90;;;;;;5002557;28;20038;-81
2022/05/31 06:47:15;;;;;;;2.33;1.92;;;10.90;99.90;;;;;;5002888;28;20038;-81
2022/05/31 06:49:41;;;;;;;2.70;2.50;;;10.90;99.90;;;;;;5002210;28;20071;-82
2022/05/31 06:57:43;;;;;;;3.13;2.80;;;11.10;99.90;;;;;;5001572;28;20180;-80
2022/05/31 07:00:13;;;;;;;2.55;2.35;;;11.20;99.90;;;;;;5001949;28;20092;-81
2022/05/31 07:02:38;;;;;;;2.03;1.92;;;11.20;99.90;;;;;;5003510;28;20317;-81
2022/05/31 07:05:04;;;;;;;5.88;3.10;;;11.20;99.90;;;;;;5002524;28;20126;-81
2022/05/31 07:07:31;;;;;;;2.90;2.55;;;11.30;99.90;;;;;;5002034;28;20049;-81
2022/05/31 07:09:56;;;;;;;2.38;2.17;;;11.40;99.90;;;;;;5018112;28;20057;-81
2022/05/31 07:12:22;;;;;;;3.67;2.80;;;11.40;99.90;;;;;;5002438;28;20052;-80
2022/05/31 07:14:48;;;;;;;3.08;2.55;;;11.50;99.90;;;;;;4984333;28;20518;-80
2022/05/31 07:17:13;;;;;;;2.05;1.95;;;11.60;99.90;;;;;;5002426;28;20116;-81
2022/05/31 07:19:40;;;;;;;3.13;2.80;;;11.60;99.90;;;;;;5001158;28;20046;-81
2022/05/31 07:22:05;;;;;;;3.10;2.53;;;11.80;99.90;;;;;;5002229;28;20042;-81
2022/05/31 07:24:31;;;;;;;2.80;2.60;;;11.80;99.90;;;;;;5002755;28;20042;-81
2022/05/31 07:26:57;;;;;;;2.88;2.47;;;11.90;99.90;;;;;;5003076;28;20042;-82
2022/05/31 07:29:23;;;;;;;3.72;3.15;;;12.00;99.90;;;;;;5000808;28;20341;-82
2022/05/31 07:31:49;;;;;;;4.10;2.22;;;12.00;99.90;;;;;;5016618;28;20071;-81
2022/05/31 07:34:16;;;;;;;2.40;2.20;;;12.10;99.90;;;;;;5002364;28;20068;-81
2022/05/31 07:36:43;;;;;;;4.03;2.53;;;12.20;99.90;;;;;;5000762;28;20060;-82
2022/05/31 07:39:12;;;;;;;2.58;2.38;;;12.30;99.90;;;;;;5001352;28;20693;-81
2022/05/31 07:41:37;;;;;;;11.23;2.70;;;12.30;99.90;;;;;;5000562;28;20053;-82
2022/05/31 07:44:04;;;;;;;3.05;2.85;;;12.40;99.90;;;;;;5002299;28;20042;-81
2022/05/31 07:46:29;;;;;;;4.35;2.55;;;12.50;99.90;;;;;;5016383;28;20067;-81
2022/05/31 07:48:59;;;;;;;2.33;2.13;;;12.60;99.90;;;;;;5002041;28;20310;-81
2022/05/31 07:51:26;;;;;;;1.65;1.55;;;12.60;99.90;;;;;;5001715;28;20061;-82
2022/05/31 07:53:52;;;;;;;2.25;2.00;;;12.70;99.90;;;;;;5001371;28;20397;-81
2022/05/31 07:56:19;;;;;;;2.58;2.30;;;12.80;99.90;;;;;;5000669;28;20073;-81
2022/05/31 07:58:46;;;;;;;3.55;2.85;;;12.80;99.90;;;;;;5001206;28;20053;-81
2022/05/31 08:01:14;;;;;;;4.18;2.83;;;12.90;99.90;;;;;;5000838;28;20578;-82
2022/05/31 08:03:41;;;;;;;6.45;2.33;;;13.00;99.90;;;;;;5002053;28;20042;-82
2022/05/31 08:06:13;;;;;;;2.53;2.28;;;13.10;99.90;;;;;;5001692;28;20073;-82
2022/05/31 08:08:39;;;;;;;2.63;2.42;;;13.10;99.90;;;;;;5000776;28;20049;-82
2022/05/31 08:11:08;;;;;;;3.65;3.00;;;13.20;99.90;;;;;;5001582;28;20042;-82
2022/05/31 08:13:34;;;;;;;4.07;2.97;;;13.20;99.90;;;;;;5000305;28;20042;-81
2022/05/31 08:16:01;;;;;;;2.38;2.08;;;13.20;99.90;;;;;;5001062;28;20088;-81
2022/05/31 08:18:27;;;;;;;3.50;3.20;;;13.20;99.90;;;;;;5000601;28;20046;-82
2022/05/31 08:21:32;;;;;;;5.07;3.60;;;13.40;99.90;;;;;;5002038;28;20195;-81
2022/05/31 08:24:04;;;;;;;3.05;2.33;;;13.50;99.90;;;;;;4940856;29;20054;-82
2022/05/31 08:26:30;;;;;;;3.47;3.17;;;13.50;99.90;;;;;;4925360;29;20130;-82
2022/05/31 08:28:56;;;;;;;3.50;2.78;;;13.50;99.90;;;;;;4946468;28;20160;-82
2022/05/31 08:31:29;;;;;;;3.72;2.38;;;13.60;99.90;;;;;;5000761;28;20049;-81
2022/05/31 08:33:54;;;;;;;3.38;2.80;;;13.70;99.90;;;;;;5001247;28;20488;-82
2022/05/31 08:36:20;;;;;;;6.22;2.90;;;13.70;99.90;;;;;;5001077;28;20610;-82
2022/05/31 08:38:46;;;;;;;9.55;3.88;;;13.80;99.90;;;;;;5001488;28;20038;-82
2022/05/31 08:41:23;;;;;;;2.22;2.03;;;13.80;99.90;;;;;;4999656;28;20046;-82
2022/05/31 08:43:52;;;;;;;3.58;3.28;;;13.90;99.90;;;;;;5001157;28;20049;-82
2022/05/31 08:46:22;;;;;;;4.72;2.80;;;14.00;99.90;;;;;;4999897;28;20354;-82
2022/05/31 08:48:54;;;;;;;3.45;2.40;;;14.00;99.90;;;;;;5001560;28;20504;-82
2022/05/31 08:57:00;;;;;;;5.28;2.53;;;14.20;99.90;;;;;;4999846;28;20452;-82
2022/05/31 08:59:53;;;;;;;2.70;2.55;;;14.20;99.90;;;;;;4998256;28;20049;-82
2022/05/31 09:02:30;;;;;;;4.22;3.30;;;14.20;99.90;;;;;;4999878;28;20502;-82
2022/05/31 09:05:06;;;;;;;4.35;2.53;;;14.20;99.90;;;;;;5001523;28;20451;-81
2022/05/31 09:07:38;;;;;;;8.88;3.97;;;14.20;99.90;;;;;;5000471;28;20448;-82
2022/05/31 09:10:12;;;;;;;3.70;2.72;;;14.30;99.90;;;;;;4999122;28;20338;-82
2022/05/31 09:12:53;;;;;;;3.42;3.22;;;14.30;99.90;;;;;;5000779;28;20148;-83
2022/05/31 09:15:37;;;;;;;5.35;3.58;;;14.30;99.90;;;;;;5000805;28;20484;-82
2022/05/31 09:18:11;;;;;;;3.20;2.38;;;14.40;99.90;;;;;;5001555;28;20042;-78
2022/05/31 09:20:52;;;;;;;3.85;3.15;;;14.60;99.90;;;;;;5004047;28;20038;-81
2022/05/31 09:23:29;;;;;;;3.33;3.05;;;14.60;99.90;;;;;;5000924;28;20096;-80
2022/05/31 09:26:12;;;;;;;3.42;3.13;;;14.70;99.90;;;;;;5001171;28;20041;-82
2022/05/31 09:28:44;;;;;;;4.88;3.90;;;14.90;99.90;;;;;;4997692;28;20078;-82
2022/05/31 09:31:30;;;;;;;5.53;3.55;;;14.90;99.90;;;;;;4997935;28;20048;-82
2022/05/31 09:34:27;;;;;;;4.32;3.95;;;15.00;99.90;;;;;;5000448;28;20042;-88
2022/05/31 09:37:15;;;;;;;3.55;3.25;;;15.10;99.90;;;;;;4986673;28;20100;-82
2022/05/31 09:40:14;;;;;;;3.22;2.85;;;15.10;99.90;;;;;;4979309;28;20142;-87
2022/05/31 09:42:45;;;;;;;3.65;2.55;;;15.20;99.90;;;;;;4997012;28;20052;-81
2022/05/31 09:45:16;;;;;;;4.68;3.75;;;15.30;99.90;;;;;;4995588;28;20489;-78
2022/05/31 09:47:42;;;;;;;3.38;3.00;;;15.30;99.90;;;;;;5000511;28;20406;-83
2022/05/31 09:50:08;;;;;;;7.25;3.40;;;15.40;99.90;;;;;;5000713;28;20092;-84
2022/05/31 09:52:42;;;;;;;6.32;3.80;;;15.50;99.90;;;;;;5000263;28;20401;-84
2022/05/31 09:58:14;;;;;;;3.35;3.05;;;15.70;99.90;;;;;;5001500;28;20045;-83
2022/05/31 10:01:03;;;;;;;2.45;2.10;;;15.80;99.90;;;;;;5000214;28;20045;-85
2022/05/31 10:03:41;;;;;;;3.08;2.35;;;16.00;99.90;;;;;;5005344;28;20042;-82
2022/05/31 10:06:14;;;;;;;8.80;3.17;;;16.10;99.90;;;;;;5003393;28;20096;-81
2022/05/31 10:08:40;;;;;;;2.47;2.28;;;16.10;99.90;;;;;;5005230;28;20080;-84
2022/05/31 10:11:28;;;;;;;3.38;2.65;;;16.20;99.90;;;;;;5002291;28;20132;-83
2022/05/31 10:14:00;;;;;;;3.40;2.80;;;16.20;99.90;;;;;;4990668;28;20060;-85
2022/05/31 10:16:30;;;;;;;3.15;2.85;;;16.30;99.90;;;;;;5003010;28;20113;-85
2022/05/31 10:18:58;;;;;;;2.55;2.35;;;16.30;99.90;;;;;;5008540;28;20054;-80
2022/05/31 10:21:34;;;;;;;9.43;2.58;;;16.20;99.90;;;;;;4996852;28;20092;-77
2022/05/31 10:24:06;;;;;;;3.20;2.80;;;16.20;99.90;;;;;;4997311;28;20157;-77
2022/05/31 10:26:37;;;;;;;5.60;2.80;;;16.20;99.90;;;;;;5004532;28;20034;-77
2022/05/31 10:29:17;;;;;;;2.45;2.28;;;16.20;99.90;;;;;;5003239;28;20072;-80
2022/05/31 10:31:47;;;;;;;3.65;2.67;;;16.20;99.90;;;;;;4983633;28;20050;-79
2022/05/31 10:34:38;;;;;;;2.88;2.55;;;16.20;99.90;;;;;;4985004;28;20121;-79
2022/05/31 10:37:07;;;;;;;6.53;2.40;;;16.20;99.90;;;;;;4985118;28;20042;-79
2022/05/31 10:39:36;;;;;;;3.05;2.75;;;16.30;99.90;;;;;;4990799;28;20034;-80
2022/05/31 10:42:07;;;;;;;5.22;3.08;;;16.30;99.90;;;;;;5003014;28;20129;-79
2022/05/31 10:44:40;;;;;;;3.65;3.35;;;16.20;99.90;;;;;;4985589;28;20060;-79
2022/05/31 10:47:13;;;;;;;3.88;3.30;;;16.20;99.90;;;;;;5002733;28;20046;-80
2022/05/31 10:49:40;;;;;;;4.03;2.33;;;16.20;99.90;;;;;;5003166;28;20413;-80
2022/05/31 10:52:36;;;;;;;3.75;2.05;;;16.20;99.90;;;;;;5002697;28;20085;-80
2022/05/31 10:55:37;;;;;;;2.92;2.55;;;16.20;99.90;;;;;;5002418;28;20042;-79
2022/05/31 10:58:32;;;;;;;3.45;2.90;;;16.20;99.90;;;;;;5002309;28;20500;-80
2022/05/31 11:01:20;;;;;;;2.95;2.50;;;16.30;99.90;;;;;;5003074;28;20136;-80
2022/05/31 11:03:45;;;;;;;3.67;2.63;;;16.30;99.90;;;;;;5003889;28;20056;-80
2022/05/31 11:06:32;;;;;;;3.53;2.53;;;16.30;99.90;;;;;;5003794;28;20042;-81
2022/05/31 11:12:22;;;;;;;7.75;2.88;;;16.40;99.90;;;;;;5001965;28;20050;-80
2022/05/31 11:15:29;;;;;;;2.50;2.40;;;16.40;99.90;;;;;;5003005;28;20061;-80
2022/05/31 11:18:32;;;;;;;2.20;1.95;;;16.50;99.90;;;;;;4986473;28;20049;-80
2022/05/31 11:21:29;;;;;;;2.60;1.77;;;16.60;99.90;;;;;;5002966;28;20042;-80
2022/05/31 11:24:21;;;;;;;5.43;2.72;;;16.50;99.90;;;;;;5000435;28;20049;-79
2022/05/31 11:27:07;;;;;;;6.57;2.97;;;16.50;99.90;;;;;;5001678;28;20053;-80
2022/05/31 11:29:37;;;;;;;3.30;1.77;;;16.50;99.90;;;;;;5002166;28;20404;-79
2022/05/31 11:32:07;;;;;;;2.08;1.88;;;16.50;99.90;;;;;;5003496;28;20112;-79
2022/05/31 11:34:58;;;;;;;2.83;2.58;;;16.50;99.90;;;;;;5002097;28;20091;-79
2022/05/31 11:37:26;;;;;;;3.55;2.90;;;16.60;99.90;;;;;;5002149;28;20096;-80
2022/05/31 11:39:58;;;;;;;3.72;3.00;;;16.60;99.90;;;;;;4998969;28;20057;-79
2022/05/31 11:42:43;;;;;;;3.05;2.78;;;16.50;99.90;;;;;;5002882;28;20049;-79
2022/05/31 11:45:35;;;;;;;3.70;2.17;;;16.50;99.90;;;;;;5000955;28;20057;-80
2022/05/31 11:48:31;;;;;;;3.03;2.25;;;16.50;99.90;;;;;;5003215;28;20058;-78
2022/05/31 11:51:24;;;;;;;3.40;2.47;;;16.60;99.90;;;;;;5002209;28;20073;-79
2022/05/31 11:54:08;;;;;;;2.35;2.15;;;16.50;99.90;;;;;;5000278;28;20042;-79
2022/05/31 11:56:49;;;;;;;2.30;2.10;;;16.50;99.90;;;;;;5001327;28;20049;-79
2022/05/31 11:59:38;;;;;;;1.92;1.75;;;16.50;99.90;;;;;;4999965;28;20381;-79
2022/05/31 12:02:22;;;;;;;4.20;3.03;;;16.50;99.90;;;;;;5000024;28;20049;-79
2022/05/31 12:05:01;;;;;;;2.63;2.05;;;16.50;99.90;;;;;;5000091;28;20053;-79
2022/05/31 12:07:41;;;;;;;4.22;2.88;;;16.50;99.90;;;;;;5001994;28;20048;-79
2022/05/31 12:10:27;;;;;;;6.90;2.03;;;16.50;99.90;;;;;;4999792;28;20058;-79
2022/05/31 12:12:57;;;;;;;2.63;1.83;;;16.40;99.90;;;;;;5001490;28;20042;-79
2022/05/31 12:15:30;;;;;;;1.40;1.30;;;16.30;99.90;;;;;;5000743;28;20050;-79
2022/05/31 12:18:20;;;;;;;2.70;2.20;;;16.30;99.90;;;;;;5002150;28;20041;-80
2022/05/31 12:20:57;;;;;;;1.95;1.73;;;16.20;99.90;;;;;;5000462;28;20124;-79
2022/05/31 12:23:49;;;;;;;3.05;1.88;;;16.20;99.90;;;;;;5001331;28;20034;-79
2022/05/31 12:26:34;;;;;;;2.22;1.88;;;16.20;99.90;;;;;;5001115;28;20088;-79
2022/05/31 12:29:06;;;;;;;2.25;1.48;;;16.20;99.90;;;;;;5000039;28;20393;-79
2022/05/31 12:31:34;;;;;;;2.80;2.15;;;16.20;99.90;;;;;;4983933;28;20050;-79
2022/05/31 12:34:32;;;;;;;3.63;1.70;;;16.10;99.90;;;;;;5000060;28;20056;-79
2022/05/31 12:37:11;;;;;;;3.47;2.25;;;16.10;99.90;;;;;;5000013;28;20061;-79
2022/05/31 12:39:38;;;;;;;4.60;2.03;;;16.10;99.90;;;;;;5001567;28;20042;-80
2022/05/31 12:42:13;;;;;;;1.73;1.63;;;16.10;99.90;;;;;;4999129;28;20081;-79
2022/05/31 12:44:40;;;;;;;2.20;2.00;;;16.10;99.90;;;;;;4998698;28;20085;-79
2022/05/31 12:47:32;;;;;;;1.83;1.08;;;16.10;99.90;;;;;;5001062;28;20065;-79
2022/05/31 12:50:04;;;;;;;3.92;1.52;;;16.10;99.90;;;;;;5001420;28;20042;-79
2022/05/31 12:55:24;;;;;;;3.45;1.60;;;16.20;99.90;;;;;;5000063;28;20046;-79
2022/05/31 12:58:35;;;;;;;1.83;1.67;;;16.20;99.90;;;;;;4999691;28;20038;-79
2022/05/31 13:01:13;;;;;;;2.53;1.63;;;16.10;99.90;;;;;;4998575;28;20046;-79
2022/05/31 13:03:51;;;;;;;1.58;1.48;;;16.20;99.90;;;;;;4983323;28;20234;-79
2022/05/31 13:06:48;;;;;;;2.40;2.08;;;16.20;99.90;;;;;;4999257;28;20050;-79
2022/05/31 13:09:33;;;;;;;2.13;1.90;;;16.20;99.90;;;;;;5000470;28;20143;-79
2022/05/31 13:20:31;;;;;;;1.02;1.02;;;16.30;99.90;;;;;;5000600;28;20766;-80
2022/05/31 13:23:01;;;;;;;2.35;2.15;;;16.30;99.90;;;;;;5001957;28;20172;-82
2022/05/31 13:25:40;;;;;;;3.63;2.83;;;16.30;99.90;;;;;;4986695;28;20038;-80
2022/05/31 13:28:06;;;;;;;5.13;2.38;;;16.30;99.90;;;;;;4982864;28;20073;-81
2022/05/31 13:30:40;;;;;;;5.13;2.50;;;16.30;99.90;;;;;;4978227;28;20034;-81
2022/05/31 13:33:18;;;;;;;2.38;2.13;;;16.30;99.90;;;;;;4997891;28;20046;-80
2022/05/31 13:35:55;;;;;;;2.13;1.92;;;16.10;99.90;;;;;;5001411;28;20054;-80
2022/05/31 13:38:26;;;;;;;1.77;1.67;;;16.00;99.90;;;;;;5005583;28;20048;-81
2022/05/31 13:40:56;;;;;;;4.55;3.42;;;15.90;99.90;;;;;;5005707;28;20046;-80
2022/05/31 13:43:21;;;;;;;3.28;2.13;;;15.80;99.90;;;;;;5005071;28;20042;-81
2022/05/31 13:45:58;;;;;;;2.05;1.85;;;15.70;99.90;;;;;;5004931;28;20492;-81